createdAt,value
2018-01-06T00:00:16.451Z,3.60
2018-01-06T00:02:44.678Z,2.53
2018-01-06T00:05:12.135Z,2.13
2018-01-06T00:07:40.318Z,4.60
2018-01-06T00:10:07.732Z,5.33
2018-01-06T00:12:35.967Z,1.60
2018-01-06T00:15:03.382Z,1.90
2018-01-06T00:17:30.843Z,1.37
2018-01-06T00:19:59.109Z,1.63
2018-01-06T00:22:26.552Z,1.53
2018-01-06T00:24:54.014Z,2.33
2018-01-06T00:27:21.454Z,2.13
2018-01-06T00:29:48.910Z,1.27
2018-01-06T00:32:17.130Z,1.70
2018-01-06T00:34:44.532Z,3.13
2018-01-06T00:37:11.998Z,2.80
2018-01-06T00:39:39.453Z,2.40
2018-01-06T00:42:06.921Z,4.17
2018-01-06T00:44:35.879Z,2.70
2018-01-06T00:47:03.330Z,2.47
2018-01-06T00:49:30.778Z,2.07
2018-01-06T00:51:59.747Z,2.93
2018-01-06T00:54:27.143Z,3.87
2018-01-06T00:56:54.593Z,3.50
2018-01-06T00:59:21.994Z,3.70
2018-01-06T01:01:50.238Z,3.50
2018-01-06T01:04:17.614Z,3.40
2018-01-06T01:06:45.048Z,4.17
2018-01-06T01:09:12.468Z,2.60
2018-01-06T01:11:39.880Z,3.23
2018-01-06T01:14:07.324Z,4.13
2018-01-06T01:16:34.771Z,4.27
2018-01-06T01:19:02.191Z,3.33
2018-01-06T01:21:29.635Z,2.30
2018-01-06T01:23:57.068Z,3.07
2018-01-06T01:26:24.484Z,3.10
2018-01-06T01:28:51.900Z,2.03
2018-01-06T01:31:20.142Z,4.07
2018-01-06T01:33:47.557Z,3.50
2018-01-06T01:36:14.980Z,2.73
2018-01-06T01:38:42.413Z,2.07
2018-01-06T01:41:09.834Z,1.80
2018-01-06T01:43:38.049Z,1.30
2018-01-06T01:46:05.471Z,1.73
2018-01-06T01:48:32.898Z,1.87
2018-01-06T01:51:00.312Z,2.37
2018-01-06T01:53:28.503Z,3.93
2018-01-06T01:55:55.919Z,3.07
2018-01-06T01:58:24.104Z,3.57
2018-01-06T02:00:51.524Z,2.23
2018-01-06T02:03:18.943Z,2.30
2018-01-06T02:05:46.359Z,2.93
2018-01-06T02:08:13.796Z,3.50
2018-01-06T02:10:41.244Z,3.73
2018-01-06T02:13:08.660Z,6.23
2018-01-06T02:15:36.076Z,4.63
2018-01-06T02:18:03.506Z,3.40
2018-01-06T02:20:31.679Z,2.83
2018-01-06T02:22:59.092Z,2.57
2018-01-06T02:25:26.512Z,2.80
2018-01-06T02:27:53.927Z,4.03
2018-01-06T02:30:21.352Z,5.23
2018-01-06T02:32:48.767Z,4.90
2018-01-06T02:35:16.955Z,4.20
2018-01-06T02:37:44.363Z,5.77
2018-01-06T02:40:12.568Z,7.47
2018-01-06T02:42:39.995Z,7.70
2018-01-06T02:45:07.407Z,8.77
2018-01-06T02:47:36.404Z,7.30
2018-01-06T02:50:03.842Z,9.30
2018-01-06T02:52:32.020Z,8.87
2018-01-06T02:54:59.445Z,9.90
2018-01-06T02:57:26.879Z,11.43
2018-01-06T02:59:55.064Z,13.00
2018-01-06T03:02:22.488Z,12.60
2018-01-06T03:04:49.922Z,12.63
2018-01-06T03:07:18.131Z,12.87
2018-01-06T03:09:45.580Z,14.33
2018-01-06T03:12:13.003Z,13.67
2018-01-06T03:14:40.429Z,16.20
2018-01-06T03:17:07.848Z,14.00
2018-01-06T03:19:35.282Z,14.17
2018-01-06T03:22:03.460Z,14.70
2018-01-06T03:24:30.896Z,14.97
2018-01-06T03:26:58.331Z,15.37
2018-01-06T03:29:25.765Z,15.80
2018-01-06T03:31:53.964Z,15.50
2018-01-06T03:34:21.392Z,17.53
2018-01-06T03:36:48.811Z,17.93
2018-01-06T03:39:16.246Z,17.90
2018-01-06T03:41:44.431Z,19.13
2018-01-06T03:44:11.860Z,18.33
2018-01-06T03:46:39.300Z,23.00
2018-01-06T03:49:06.723Z,23.80
2018-01-06T03:51:34.948Z,24.13
2018-01-06T03:54:02.377Z,20.43
2018-01-06T03:56:29.810Z,22.73
2018-01-06T03:58:57.272Z,28.07
2018-01-06T04:01:24.731Z,27.37
2018-01-06T04:03:52.128Z,32.37
2018-01-06T04:06:19.551Z,42.97
2018-01-06T04:08:46.985Z,39.60
2018-01-06T04:11:15.160Z,50.17
2018-01-06T04:13:42.587Z,38.40
2018-01-06T04:16:10.091Z,33.00
2018-01-06T04:18:37.503Z,31.10
2018-01-06T04:21:04.928Z,46.07
2018-01-06T04:23:32.400Z,43.50
2018-01-06T04:25:59.824Z,46.43
2018-01-06T04:28:27.260Z,53.30
2018-01-06T04:30:54.676Z,51.03
2018-01-06T04:33:22.860Z,56.50
2018-01-06T04:35:50.298Z,64.07
2018-01-06T04:38:17.727Z,71.53
2018-01-06T04:40:45.147Z,51.37
2018-01-06T04:43:13.340Z,91.23
2018-01-06T04:45:40.759Z,85.40
2018-01-06T04:48:08.944Z,61.13
2018-01-06T04:50:36.367Z,73.60
2018-01-06T04:53:03.836Z,85.37
2018-01-06T04:55:31.276Z,88.47
2018-01-06T04:57:58.712Z,61.10
2018-01-06T05:00:26.131Z,95.13
2018-01-06T05:02:53.555Z,83.30
2018-01-06T05:05:21.735Z,75.20
2018-01-06T05:07:49.172Z,75.07
2018-01-06T05:10:16.608Z,65.30
2018-01-06T05:12:44.827Z,78.37
2018-01-06T05:15:12.260Z,71.63
2018-01-06T05:17:39.679Z,80.43
2018-01-06T05:20:07.108Z,83.00
2018-01-06T05:22:34.542Z,76.13
2018-01-06T05:25:02.020Z,85.20
2018-01-06T05:27:29.450Z,82.30
2018-01-06T05:29:56.891Z,77.33
2018-01-06T05:32:24.319Z,95.33
2018-01-06T05:34:51.756Z,73.90
2018-01-06T05:37:19.179Z,65.90
2018-01-06T05:39:47.372Z,76.20
2018-01-06T05:42:14.808Z,90.33
2018-01-06T05:44:42.277Z,73.77
2018-01-06T05:47:09.713Z,60.43
2018-01-06T05:49:37.136Z,81.57
2018-01-06T05:52:04.616Z,75.43
2018-01-06T05:54:32.054Z,73.60
2018-01-06T05:56:59.476Z,67.57
2018-01-06T05:59:26.899Z,83.47
2018-01-06T06:01:54.328Z,77.20
2018-01-06T06:04:21.747Z,101.07
2018-01-06T06:06:49.944Z,120.60
2018-01-06T06:09:17.368Z,77.20
2018-01-06T06:11:44.792Z,88.33
2018-01-06T06:14:12.992Z,87.97
2018-01-06T06:16:40.412Z,81.77
2018-01-06T06:19:07.887Z,81.57
2018-01-06T06:21:35.315Z,91.13
2018-01-06T06:24:02.732Z,104.90
2018-01-06T06:26:30.156Z,111.90
2018-01-06T06:28:58.340Z,83.97
2018-01-06T06:31:25.783Z,71.77
2018-01-06T06:33:53.213Z,94.53
2018-01-06T06:36:21.405Z,104.23
2018-01-06T06:38:48.860Z,86.13
2018-01-06T06:41:16.301Z,72.57
2018-01-06T06:43:43.743Z,55.10
2018-01-06T06:46:11.164Z,67.53
2018-01-06T06:48:38.631Z,52.73
2018-01-06T06:51:06.063Z,78.57
2018-01-06T06:53:33.491Z,65.83
2018-01-06T06:56:00.942Z,74.87
2018-01-06T06:58:28.355Z,66.43
2018-01-06T07:00:55.780Z,82.83
2018-01-06T07:03:23.972Z,79.87
2018-01-06T07:05:51.400Z,59.87
2018-01-06T07:08:18.838Z,59.07
2018-01-06T07:10:46.252Z,58.97
2018-01-06T07:13:14.447Z,55.67
2018-01-06T07:15:41.879Z,58.90
2018-01-06T07:18:09.312Z,46.93
2018-01-06T07:20:36.808Z,43.47
2018-01-06T07:23:04.340Z,35.43
2018-01-06T07:25:31.775Z,44.87
2018-01-06T07:27:59.204Z,46.87
2018-01-06T07:30:26.626Z,38.40
2018-01-06T07:32:54.118Z,36.73
2018-01-06T07:35:21.535Z,44.90
2018-01-06T07:37:48.956Z,41.73
2018-01-06T07:40:16.436Z,45.93
2018-01-06T07:42:43.855Z,46.20
2018-01-06T07:45:11.275Z,44.47
2018-01-06T07:47:38.699Z,34.87
2018-01-06T07:50:06.888Z,46.70
2018-01-06T07:52:34.315Z,37.87
2018-01-06T07:55:01.747Z,38.40
2018-01-06T07:57:29.937Z,42.70
2018-01-06T07:59:57.378Z,38.10
2018-01-06T08:02:24.803Z,36.37
2018-01-06T08:04:52.241Z,34.03
2018-01-06T08:07:20.432Z,35.97
2018-01-06T08:09:47.843Z,34.47
2018-01-06T08:12:15.274Z,33.07
2018-01-06T08:14:43.471Z,27.40
2018-01-06T08:17:10.889Z,29.07
2018-01-06T08:19:38.315Z,33.10
2018-01-06T08:22:06.504Z,27.57
2018-01-06T08:24:33.927Z,30.23
2018-01-06T08:27:01.357Z,28.03
2018-01-06T08:29:29.543Z,28.07
2018-01-06T08:31:57.000Z,28.83
2018-01-06T08:34:24.400Z,27.20
2018-01-06T08:36:52.602Z,25.37
2018-01-06T08:39:20.028Z,25.63
2018-01-06T08:41:47.451Z,27.53
2018-01-06T08:44:14.879Z,32.57
2018-01-06T08:46:43.082Z,25.67
2018-01-06T08:49:10.496Z,24.13
2018-01-06T08:51:37.939Z,20.37
2018-01-06T08:54:05.357Z,23.77
2018-01-06T08:56:33.547Z,27.63
2018-01-06T08:59:00.980Z,26.37
2018-01-06T09:01:28.399Z,33.07
2018-01-06T09:03:56.600Z,28.57
2018-01-06T09:06:24.032Z,46.07
2018-01-06T09:08:51.455Z,49.57
2018-01-06T09:11:18.875Z,36.77
2018-01-06T09:13:46.308Z,44.47
2018-01-06T09:16:15.284Z,32.53
2018-01-06T09:18:42.677Z,37.63
2018-01-06T09:21:10.103Z,30.60
2018-01-06T09:23:37.523Z,36.47
2018-01-06T09:26:05.716Z,31.10
2018-01-06T09:28:33.152Z,35.37
2018-01-06T09:31:01.328Z,30.60
2018-01-06T09:33:28.751Z,29.97
2018-01-06T09:35:56.171Z,33.40
2018-01-06T09:38:24.380Z,25.00
2018-01-06T09:40:51.824Z,20.80
2018-01-06T09:43:19.252Z,24.57
2018-01-06T09:45:46.686Z,21.87
2018-01-06T09:48:14.103Z,21.27
2018-01-06T09:50:41.528Z,20.60
2018-01-06T09:53:09.732Z,17.30
2018-01-06T09:55:37.156Z,19.73
2018-01-06T09:58:04.582Z,16.13
2018-01-06T10:00:32.788Z,19.10
2018-01-06T10:03:00.228Z,16.10
2018-01-06T10:05:27.729Z,18.73
2018-01-06T10:07:55.121Z,17.10
2018-01-06T10:10:22.540Z,15.80
2018-01-06T10:12:49.967Z,16.00
2018-01-06T10:15:17.386Z,15.90
2018-01-06T10:17:45.572Z,15.77
2018-01-06T10:20:12.996Z,24.00
2018-01-06T10:22:40.415Z,19.73
2018-01-06T10:25:07.848Z,20.77
2018-01-06T10:27:35.275Z,17.07
2018-01-06T10:30:02.700Z,15.87
2018-01-06T10:32:30.118Z,14.20
2018-01-06T10:34:57.552Z,13.87
2018-01-06T10:37:24.967Z,14.40
2018-01-06T10:39:53.164Z,13.47
2018-01-06T10:42:20.628Z,12.30
2018-01-06T10:44:48.051Z,13.20
2018-01-06T10:47:15.471Z,12.70
2018-01-06T10:49:42.950Z,11.43
2018-01-06T10:52:10.381Z,12.00
2018-01-06T10:54:37.875Z,12.57
2018-01-06T10:57:05.276Z,11.23
2018-01-06T10:59:32.695Z,8.73
2018-01-06T11:02:05.976Z,8.07
2018-01-06T11:04:33.435Z,8.67
2018-01-06T11:07:00.883Z,8.77
2018-01-06T11:09:28.295Z,8.73
2018-01-06T11:11:55.711Z,8.63
2018-01-06T11:14:23.904Z,9.13
2018-01-06T11:16:51.324Z,10.37
2018-01-06T11:19:18.751Z,12.63
2018-01-06T11:21:46.951Z,11.90
2018-01-06T11:24:14.380Z,12.00
2018-01-06T11:26:41.844Z,10.93
2018-01-06T11:29:09.264Z,11.67
2018-01-06T11:31:36.683Z,10.63
2018-01-06T11:34:04.868Z,13.53
2018-01-06T11:36:32.297Z,10.80
2018-01-06T11:38:59.718Z,11.07
2018-01-06T11:41:27.912Z,10.87
2018-01-06T11:43:55.379Z,9.50
2018-01-06T11:46:22.822Z,20.67
2018-01-06T11:48:50.257Z,12.90
2018-01-06T11:51:17.690Z,9.23
2018-01-06T11:53:45.139Z,10.57
2018-01-06T11:56:12.584Z,10.50
2018-01-06T11:58:40.008Z,9.00
2018-01-06T12:01:07.436Z,8.43
2018-01-06T12:03:34.860Z,13.63
2018-01-06T12:06:03.048Z,8.30
2018-01-06T12:08:30.472Z,16.70
2018-01-06T12:10:57.887Z,9.53
2018-01-06T12:13:26.073Z,9.20
2018-01-06T12:15:53.499Z,26.30
2018-01-06T12:18:21.702Z,24.43
2018-01-06T12:20:49.176Z,9.10
2018-01-06T12:23:16.543Z,21.53
2018-01-06T12:25:44.736Z,10.20
2018-01-06T12:28:12.156Z,7.13
2018-01-06T12:30:39.586Z,10.93
2018-01-06T12:33:07.791Z,6.30
2018-01-06T12:35:35.203Z,6.30
2018-01-06T12:38:02.684Z,5.27
2018-01-06T12:40:30.108Z,7.23
2018-01-06T12:42:57.528Z,6.07
2018-01-06T12:45:24.951Z,6.20
2018-01-06T12:47:53.153Z,6.13
2018-01-06T12:50:20.560Z,6.27
2018-01-06T12:52:48.049Z,6.17
2018-01-06T12:55:15.472Z,7.07
2018-01-06T12:57:42.926Z,5.73
2018-01-06T13:00:10.316Z,5.97
2018-01-06T13:02:38.503Z,5.77
2018-01-06T13:05:05.923Z,5.53
2018-01-06T13:07:33.358Z,5.70
2018-01-06T13:10:01.538Z,7.03
2018-01-06T13:12:28.957Z,6.50
2018-01-06T13:14:57.140Z,5.47
2018-01-06T13:17:24.567Z,5.80
2018-01-06T13:19:51.987Z,6.83
2018-01-06T13:22:20.209Z,6.37
2018-01-06T13:24:47.615Z,5.40
2018-01-06T13:27:15.103Z,8.20
2018-01-06T13:29:42.512Z,5.87
2018-01-06T13:32:09.931Z,6.13
2018-01-06T13:34:37.408Z,12.83
2018-01-06T13:37:04.827Z,5.80
2018-01-06T13:39:32.302Z,12.23
2018-01-06T13:41:59.748Z,24.10
2018-01-06T13:44:27.287Z,19.40
2018-01-06T13:46:54.710Z,7.33
2018-01-06T13:49:22.173Z,13.40
2018-01-06T13:51:49.596Z,8.57
2018-01-06T13:54:17.022Z,9.67
2018-01-06T13:56:44.435Z,7.90
2018-01-06T13:59:12.673Z,5.73
2018-01-06T14:01:40.083Z,6.77
2018-01-06T14:04:07.550Z,6.67
2018-01-06T14:06:34.960Z,5.47
2018-01-06T14:09:02.421Z,5.97
2018-01-06T14:11:29.848Z,5.33
2018-01-06T14:13:57.263Z,4.63
2018-01-06T14:16:24.741Z,3.70
2018-01-06T14:18:52.188Z,4.33
2018-01-06T14:21:19.596Z,3.47
2018-01-06T14:23:47.022Z,3.73
2018-01-06T14:26:15.222Z,3.20
2018-01-06T14:28:42.639Z,7.33
2018-01-06T14:31:10.100Z,5.40
2018-01-06T14:33:37.493Z,3.77
2018-01-06T14:36:05.675Z,3.53
2018-01-06T14:38:33.095Z,3.17
2018-01-06T14:41:01.304Z,3.40
2018-01-06T14:43:28.728Z,2.70
2018-01-06T14:45:56.193Z,3.00
2018-01-06T14:48:23.600Z,4.97
2018-01-06T14:50:51.067Z,2.97
2018-01-06T14:53:18.476Z,3.90
2018-01-06T14:55:45.901Z,3.63
2018-01-06T14:58:14.133Z,4.13
2018-01-06T15:00:41.581Z,2.93
2018-01-06T15:03:08.988Z,4.93
2018-01-06T15:05:36.432Z,5.67
2018-01-06T15:08:03.887Z,3.90
2018-01-06T15:10:31.283Z,3.53
2018-01-06T15:12:58.754Z,3.43
2018-01-06T15:15:26.173Z,5.00
2018-01-06T15:17:53.587Z,8.17
2018-01-06T15:20:21.767Z,4.93
2018-01-06T15:22:49.179Z,4.20
2018-01-06T15:25:16.604Z,4.73
2018-01-06T15:27:44.021Z,4.93
2018-01-06T15:30:11.432Z,4.97
2018-01-06T15:32:38.844Z,4.00
2018-01-06T15:35:07.115Z,4.53
2018-01-06T15:37:34.521Z,4.20
2018-01-06T15:40:02.000Z,5.00
2018-01-06T15:42:29.359Z,4.93
2018-01-06T15:44:56.818Z,4.77
2018-01-06T15:47:24.215Z,4.77
2018-01-06T15:49:52.400Z,4.77
2018-01-06T15:52:19.823Z,6.13
2018-01-06T15:54:48.010Z,5.97
2018-01-06T15:57:15.465Z,6.10
2018-01-06T15:59:42.914Z,6.87
2018-01-06T16:02:10.328Z,7.33
2018-01-06T16:04:37.783Z,7.33
2018-01-06T16:07:05.189Z,7.80
2018-01-06T16:09:33.375Z,7.20
2018-01-06T16:12:00.794Z,11.00
2018-01-06T16:14:29.008Z,10.17
2018-01-06T16:16:56.452Z,12.87
2018-01-06T16:19:23.958Z,13.03
2018-01-06T16:21:51.339Z,17.67
2018-01-06T16:24:18.768Z,18.83
2018-01-06T16:26:46.204Z,17.13
2018-01-06T16:29:13.623Z,19.93
2018-01-06T16:31:41.043Z,20.57
2018-01-06T16:34:09.253Z,14.73
2018-01-06T16:36:36.725Z,17.70
2018-01-06T16:39:04.142Z,196.13
2018-01-06T16:41:31.615Z,33.43
2018-01-06T16:43:59.829Z,19.03
2018-01-06T16:46:27.303Z,13.87
2018-01-06T16:48:54.754Z,12.87
2018-01-06T16:51:22.172Z,12.73
2018-01-06T16:53:49.605Z,14.40
2018-01-06T16:56:17.074Z,17.30
2018-01-06T16:58:44.492Z,19.97
2018-01-06T17:01:11.958Z,19.47
2018-01-06T17:03:40.194Z,19.57
2018-01-06T17:06:07.649Z,18.93
2018-01-06T17:08:35.059Z,22.10
2018-01-06T17:11:02.530Z,19.80
2018-01-06T17:13:29.948Z,19.63
2018-01-06T17:15:57.372Z,19.63
2018-01-06T17:18:24.794Z,19.70
2018-01-06T17:20:53.027Z,20.60
2018-01-06T17:23:20.457Z,22.60
2018-01-06T17:25:47.877Z,40.90
2018-01-06T17:28:15.307Z,33.57
2018-01-06T17:30:42.792Z,21.93
2018-01-06T17:33:10.248Z,23.40
2018-01-06T17:35:39.168Z,29.87
2018-01-06T17:38:06.684Z,37.90
2018-01-06T17:40:34.910Z,52.80
2018-01-06T17:43:02.320Z,38.77
2018-01-06T17:45:29.786Z,29.00
2018-01-06T17:47:57.200Z,26.93
2018-01-06T17:50:24.661Z,31.17
2018-01-06T17:52:52.088Z,27.90
2018-01-06T17:55:19.501Z,62.93
2018-01-06T17:57:46.971Z,34.20
2018-01-06T18:00:14.380Z,41.57
2018-01-06T18:02:41.847Z,40.23
2018-01-06T18:05:09.268Z,33.83
2018-01-06T18:07:36.691Z,67.03
2018-01-06T18:10:04.926Z,96.20
2018-01-06T18:12:32.341Z,106.57
2018-01-06T18:14:59.806Z,58.57
2018-01-06T18:17:27.224Z,44.70
2018-01-06T18:19:54.685Z,29.87
2018-01-06T18:22:22.141Z,33.13
2018-01-06T18:24:49.601Z,27.37
2018-01-06T18:27:17.776Z,22.70
2018-01-06T18:29:45.244Z,31.43
2018-01-06T18:32:12.659Z,46.70
2018-01-06T18:34:40.193Z,61.33
2018-01-06T18:37:08.383Z,43.90
2018-01-06T18:39:35.841Z,33.97
2018-01-06T18:42:03.302Z,37.87
2018-01-06T18:44:31.287Z,36.07
2018-01-06T18:46:59.472Z,25.80
2018-01-06T18:49:26.960Z,31.83
2018-01-06T18:51:54.419Z,30.20
2018-01-06T18:54:21.831Z,35.13
2018-01-06T18:56:49.303Z,34.23
2018-01-06T18:59:16.767Z,36.50
2018-01-06T19:01:44.995Z,30.47
2018-01-06T19:04:12.464Z,24.20
2018-01-06T19:06:40.682Z,30.03
2018-01-06T19:09:08.140Z,35.53
2018-01-06T19:11:35.603Z,35.83
2018-01-06T19:14:03.785Z,58.80
2018-01-06T19:16:31.262Z,35.60
2018-01-06T19:18:58.725Z,46.90
2018-01-06T19:21:26.175Z,40.10
2018-01-06T19:23:55.092Z,43.63
2018-01-06T19:26:22.566Z,37.70
2018-01-06T19:28:50.055Z,29.23
2018-01-06T19:31:18.262Z,28.13
2018-01-06T19:33:45.680Z,34.97
2018-01-06T19:36:13.159Z,33.13
2018-01-06T19:38:40.572Z,30.07
2018-01-06T19:41:08.057Z,42.87
2018-01-06T19:43:35.514Z,38.90
2018-01-06T19:46:03.742Z,30.77
2018-01-06T19:48:31.206Z,30.37
2018-01-06T19:50:58.662Z,47.47
2018-01-06T19:53:26.150Z,86.27
2018-01-06T19:55:53.604Z,43.03
2018-01-06T19:58:21.072Z,30.33
2018-01-06T20:00:48.539Z,30.93
2018-01-06T20:03:16.772Z,45.00
2018-01-06T20:05:44.231Z,37.07
2018-01-06T20:08:12.459Z,35.47
2018-01-06T20:10:39.923Z,33.83
2018-01-06T20:13:07.388Z,31.93
2018-01-06T20:15:35.627Z,35.03
2018-01-06T20:18:03.070Z,35.63
2018-01-06T20:20:30.535Z,31.07
2018-01-06T20:22:58.749Z,34.37
2018-01-06T20:25:26.216Z,29.53
2018-01-06T20:27:53.671Z,29.87
2018-01-06T20:30:21.903Z,27.70
2018-01-06T20:32:49.379Z,29.60
2018-01-06T20:35:17.607Z,29.37
2018-01-06T20:37:45.078Z,35.27
2018-01-06T20:40:13.341Z,29.47
2018-01-06T20:42:41.546Z,30.47
2018-01-06T20:45:09.014Z,30.10
2018-01-06T20:47:37.240Z,39.90
2018-01-06T20:50:04.738Z,33.47
2018-01-06T20:52:32.967Z,32.33
2018-01-06T20:55:00.423Z,35.80
2018-01-06T20:57:27.879Z,28.37
2018-01-06T20:59:56.114Z,32.30
2018-01-06T21:02:23.606Z,37.53
2018-01-06T21:04:51.070Z,40.17
2018-01-06T21:07:18.527Z,50.27
2018-01-06T21:09:46.019Z,52.57
2018-01-06T21:12:14.284Z,46.90
2018-01-06T21:14:42.515Z,34.23
2018-01-06T21:17:09.981Z,38.40
2018-01-06T21:19:38.215Z,46.10
2018-01-06T21:22:05.675Z,50.93
2018-01-06T21:24:33.899Z,43.43
2018-01-06T21:27:01.363Z,41.03
2018-01-06T21:29:28.819Z,51.97
2018-01-06T21:31:57.055Z,95.47
2018-01-06T21:34:24.519Z,58.87
2018-01-06T21:36:51.975Z,72.13
2018-01-06T21:39:20.242Z,94.73
2018-01-06T21:41:48.472Z,71.43
2018-01-06T21:44:15.930Z,52.27
2018-01-06T21:46:44.150Z,51.73
2018-01-06T21:49:11.615Z,52.37
2018-01-06T21:51:39.071Z,68.50
2018-01-06T21:54:06.531Z,51.00
2018-01-06T21:56:33.990Z,57.80
2018-01-06T21:59:01.446Z,88.13
2018-01-06T22:01:28.915Z,101.80
2018-01-06T22:03:56.390Z,61.93
2018-01-06T22:06:24.611Z,101.73
2018-01-06T22:08:52.066Z,62.47
2018-01-06T22:11:19.617Z,41.00
2018-01-06T22:13:47.072Z,42.97
2018-01-06T22:16:15.310Z,36.47
2018-01-06T22:18:42.764Z,27.10
2018-01-06T22:21:11.734Z,36.87
2018-01-06T22:23:39.206Z,51.33
2018-01-06T22:26:07.435Z,42.50
2018-01-06T22:28:34.901Z,35.37
2018-01-06T22:31:03.130Z,47.10
2018-01-06T22:33:30.599Z,53.60
2018-01-06T22:35:58.827Z,67.47
2018-01-06T22:38:26.286Z,82.10
2018-01-06T22:40:53.750Z,68.27
2018-01-06T22:43:22.006Z,72.30
2018-01-06T22:45:49.450Z,89.17
2018-01-06T22:48:17.683Z,151.77
2018-01-06T22:50:45.148Z,116.70
2018-01-06T22:53:13.383Z,62.93
2018-01-06T22:55:40.838Z,48.90
2018-01-06T22:58:09.067Z,70.43
2018-01-06T23:00:39.876Z,86.60
2018-01-06T23:03:07.335Z,79.67
2018-01-06T23:05:34.791Z,59.30
2018-01-06T23:08:02.257Z,83.23
2018-01-06T23:10:30.492Z,108.70
2018-01-06T23:12:57.959Z,93.43
2018-01-06T23:15:26.915Z,87.83
2018-01-06T23:17:54.387Z,112.27
2018-01-06T23:20:22.602Z,98.13
2018-01-06T23:22:50.067Z,79.27
2018-01-06T23:25:17.531Z,72.63
2018-01-06T23:27:45.759Z,77.33
2018-01-06T23:30:13.227Z,125.53
2018-01-06T23:32:41.454Z,118.87
2018-01-06T23:35:08.911Z,69.10
2018-01-06T23:37:36.371Z,56.90
2018-01-06T23:40:04.603Z,46.10
2018-01-06T23:42:32.068Z,54.30
2018-01-06T23:44:59.512Z,52.43
2018-01-06T23:47:27.739Z,57.70
2018-01-06T23:49:55.195Z,50.50
2018-01-06T23:52:22.650Z,60.53
2018-01-06T23:54:50.886Z,60.07
2018-01-06T23:57:18.325Z,44.43
2018-01-06T23:59:45.807Z,42.37
